Aérodrome :
LOGIN :

S'inscrire | Disclaimer

   EN    FR    IT 

 










Légende :    VFR   VFR Marginal   IFR   IFR Intensif   IFR Très Intensif
Visi : 
Plafond : 
>= 8 km
>= 3000ft
5 à 8 km
1000 à 3000 ft
1500m à 5 km
500 à 1000 ft
800 à 1500m
200 à 500 ft
< 800m
< 200 ft
Symboles :   Orages  Brouillard  Fortes neiges  Fortes précipitations  Vent > 20 kt
SIGMETs :   Divers  Orages  Givrage  Turbulence  Onde Orograph.  Cendres Volcan.







- Altitude de l'aérodrome : 863 ft
- Code IATA : ZAZ


LEZG - Zaragoza Aragon

METARs EXPIRÉS :
  • 241430Z 29010KT 250V340 CAVOK 32/15 Q1017
  • 241400Z 30008KT 250V350 CAVOK 31/14 Q1017
  • 241330Z 30009KT 240V340 CAVOK 30/15 Q1017
  • 241300Z 29008KT 230V340 CAVOK 30/15 Q1018
  • 241230Z 28010KT 240V320 CAVOK 29/15 Q1018
  • 241200Z 29008KT 260V330 CAVOK 28/15 Q1018

Prévision TAF périmée.
Pas de NOTAMs connus pour ce terrain.
1 SIGMET publié pour la FIR Madrid (LECM) :
 
Orages noyés dans la masse
LECM SIGMET 6 VALID 251700/252000 LEVA
LECM MADRID FIR/UIR EMBD TS OBS AT 1638Z E OF LINE N4240 W00440 - N3720 W00720 TOP FL340 MOV NE 30KT NC=



MET'MAP, la Météo Aéronautique d'un coup d'oeil ! - Copyright ORBIFLY Décembre 2007 - Disclaimer

ORBIFLY MET'MAP TEAM :

Programmation & Développement : Alexandra Zaïnal
Conception & Développement : Baudouin d'Aumeries
Co-Programmation & Développement : Marc-Olivier Méhu
Soutien technique & logistique : Manuel Goepfert

Contact : metmap@orbifly.com




SOURCES & CREDITS :

   NOAA